createdAt,value
2023-12-16T00:00:21.638Z,4.54
2023-12-16T00:02:23.154Z,4.48
2023-12-16T00:04:24.682Z,4.53
2023-12-16T00:06:26.202Z,4.65
2023-12-16T00:08:27.700Z,4.71
2023-12-16T00:10:29.190Z,4.61
2023-12-16T00:12:31.093Z,4.53
2023-12-16T00:14:36.882Z,4.52
2023-12-16T00:16:44.475Z,4.56
2023-12-16T00:18:46.039Z,4.63
2023-12-16T00:20:47.981Z,4.58
2023-12-16T00:22:49.423Z,4.88
2023-12-16T00:24:50.902Z,4.80
2023-12-16T00:26:52.470Z,4.72
2023-12-16T00:28:53.891Z,4.70
2023-12-16T00:30:55.428Z,4.63
2023-12-16T00:32:57.212Z,4.48
2023-12-16T00:34:58.673Z,4.70
2023-12-16T00:37:01.047Z,4.50
2023-12-16T00:39:02.808Z,4.71
2023-12-16T00:41:04.438Z,4.57
2023-12-16T00:43:05.983Z,4.48
2023-12-16T00:45:07.737Z,4.53
2023-12-16T00:47:09.150Z,4.58
2023-12-16T00:49:10.719Z,4.74
2023-12-16T00:51:12.401Z,4.91
2023-12-16T00:53:13.844Z,4.74
2023-12-16T00:55:15.428Z,4.68
2023-12-16T00:57:16.898Z,4.73
2023-12-16T00:59:18.335Z,4.69
2023-12-16T01:01:19.985Z,4.73
2023-12-16T01:03:21.574Z,4.42
2023-12-16T01:05:23.075Z,4.58
2023-12-16T01:07:24.732Z,4.55
2023-12-16T01:09:26.499Z,4.68
2023-12-16T01:11:27.952Z,4.64
2023-12-16T01:13:29.459Z,4.45
2023-12-16T01:15:31.005Z,4.99
2023-12-16T01:17:32.525Z,4.96
2023-12-16T01:19:34.001Z,4.95
2023-12-16T01:21:44.685Z,4.79
2023-12-16T01:23:46.247Z,4.65
2023-12-16T01:25:47.710Z,4.84
2023-12-16T01:27:49.332Z,4.59
2023-12-16T01:29:50.858Z,4.77
2023-12-16T01:31:52.312Z,4.92
2023-12-16T01:33:53.854Z,4.73
2023-12-16T01:35:55.800Z,4.67
2023-12-16T01:37:57.231Z,4.75
2023-12-16T01:39:58.849Z,4.93
2023-12-16T01:42:00.329Z,4.77
2023-12-16T01:44:01.757Z,4.84
2023-12-16T01:46:05.590Z,4.87
2023-12-16T01:48:09.236Z,4.68
2023-12-16T01:50:11.034Z,4.85
2023-12-16T01:52:12.781Z,4.71
2023-12-16T01:54:14.357Z,4.69
2023-12-16T01:56:16.215Z,4.63
2023-12-16T01:58:17.935Z,4.59
2023-12-16T02:00:20.466Z,4.69
2023-12-16T02:02:23.587Z,4.71
2023-12-16T02:04:25.633Z,4.52
2023-12-16T02:06:27.145Z,4.63
2023-12-16T02:08:28.639Z,5.00
2023-12-16T02:10:30.175Z,5.03
2023-12-16T02:12:34.498Z,4.87
2023-12-16T02:14:35.937Z,4.82
2023-12-16T02:16:37.561Z,5.02
2023-12-16T02:18:39.299Z,5.12
2023-12-16T02:20:40.854Z,5.12
2023-12-16T02:22:42.517Z,5.11
2023-12-16T02:24:44.185Z,5.01
2023-12-16T02:26:45.681Z,4.97
2023-12-16T02:28:47.341Z,5.09
2023-12-16T02:30:48.808Z,5.10
2023-12-16T02:32:50.346Z,5.04
2023-12-16T02:34:51.898Z,4.98
2023-12-16T02:36:54.195Z,5.07
2023-12-16T02:38:55.697Z,5.12
2023-12-16T02:40:57.133Z,5.11
2023-12-16T02:42:59.185Z,5.27
2023-12-16T02:45:00.613Z,5.04
2023-12-16T02:47:02.625Z,5.01
2023-12-16T02:49:04.226Z,5.01
2023-12-16T02:51:06.028Z,5.04
2023-12-16T02:53:07.616Z,4.91
2023-12-16T02:55:09.353Z,4.99
2023-12-16T02:57:10.833Z,5.05
2023-12-16T02:59:12.957Z,5.02
2023-12-16T03:01:14.551Z,4.90
2023-12-16T03:03:16.165Z,4.90
2023-12-16T03:05:17.925Z,4.98
2023-12-16T03:07:19.407Z,4.98
2023-12-16T03:09:20.985Z,5.02
2023-12-16T03:11:22.545Z,4.90
2023-12-16T03:13:24.030Z,4.84
2023-12-16T03:15:25.644Z,4.89
2023-12-16T03:17:27.131Z,4.81
2023-12-16T03:19:28.725Z,5.00
2023-12-16T03:21:30.934Z,4.86
2023-12-16T03:23:32.502Z,5.16
2023-12-16T03:25:33.992Z,5.12
2023-12-16T03:27:35.444Z,5.02
2023-12-16T03:29:37.247Z,5.17
2023-12-16T03:31:38.715Z,5.08
2023-12-16T03:33:40.285Z,5.19
2023-12-16T03:35:42.075Z,5.21
2023-12-16T03:37:43.505Z,5.29
2023-12-16T03:39:44.994Z,5.12
2023-12-16T03:41:46.672Z,5.24
2023-12-16T03:43:48.152Z,5.22
2023-12-16T03:45:49.579Z,5.35
2023-12-16T03:47:51.363Z,5.23
2023-12-16T03:49:52.956Z,5.32
2023-12-16T03:51:54.453Z,5.34
2023-12-16T03:53:56.041Z,5.26
2023-12-16T03:55:57.461Z,5.31
2023-12-16T03:57:58.945Z,5.17
2023-12-16T04:00:01.002Z,5.30
2023-12-16T04:02:02.501Z,5.37
2023-12-16T04:04:04.079Z,5.34
2023-12-16T04:06:05.670Z,5.27
2023-12-16T04:08:08.056Z,5.26
2023-12-16T04:10:10.482Z,5.39
2023-12-16T04:12:11.959Z,5.32
2023-12-16T04:14:13.385Z,5.37
2023-12-16T04:16:14.873Z,5.41
2023-12-16T04:18:16.602Z,5.36
2023-12-16T04:20:18.062Z,5.40
2023-12-16T04:22:20.649Z,5.44
2023-12-16T04:24:22.290Z,5.34
2023-12-16T04:26:23.727Z,5.29
2023-12-16T04:28:25.391Z,5.34
2023-12-16T04:30:26.933Z,5.39
2023-12-16T04:32:29.839Z,5.43
2023-12-16T04:34:31.611Z,5.25
2023-12-16T04:36:33.089Z,5.45
2023-12-16T04:38:36.655Z,5.19
2023-12-16T04:40:38.277Z,5.52
2023-12-16T04:42:42.400Z,5.47
2023-12-16T04:44:43.839Z,5.62
2023-12-16T04:46:45.411Z,5.46
2023-12-16T04:48:46.969Z,5.49
2023-12-16T04:50:48.459Z,5.55
2023-12-16T04:52:49.971Z,5.55
2023-12-16T04:54:51.411Z,5.63
2023-12-16T04:56:52.856Z,5.76
2023-12-16T04:58:54.397Z,5.55
2023-12-16T05:00:55.938Z,5.61
2023-12-16T05:02:57.410Z,5.64
2023-12-16T05:04:59.110Z,5.43
2023-12-16T05:07:00.570Z,5.67
2023-12-16T05:09:02.000Z,5.53
2023-12-16T05:11:03.670Z,5.58
2023-12-16T05:13:05.147Z,5.70
2023-12-16T05:15:07.161Z,5.76
2023-12-16T05:17:08.750Z,5.68
2023-12-16T05:19:10.327Z,5.76
2023-12-16T05:21:11.831Z,5.72
2023-12-16T05:23:13.434Z,5.55
2023-12-16T05:25:14.907Z,5.66
2023-12-16T05:27:16.488Z,5.64
2023-12-16T05:29:18.087Z,5.60
2023-12-16T05:31:19.644Z,5.67
2023-12-16T05:33:21.317Z,5.73
2023-12-16T05:35:23.021Z,5.83
2023-12-16T05:37:24.627Z,5.76
2023-12-16T05:39:26.106Z,5.85
2023-12-16T05:41:27.681Z,5.80
2023-12-16T05:43:29.300Z,5.89
2023-12-16T05:45:30.748Z,5.77
2023-12-16T05:47:32.182Z,5.87
2023-12-16T05:49:33.760Z,5.69
2023-12-16T05:51:42.092Z,5.60
2023-12-16T05:53:43.661Z,5.70
2023-12-16T05:55:45.110Z,5.79
2023-12-16T05:57:46.649Z,5.72
2023-12-16T05:59:48.483Z,5.70
2023-12-16T06:01:49.927Z,5.60
2023-12-16T06:03:51.382Z,5.73
2023-12-16T06:05:53.154Z,5.89
2023-12-16T06:07:54.628Z,5.72
2023-12-16T06:09:56.068Z,5.76
2023-12-16T06:11:57.658Z,5.88
2023-12-16T06:13:59.098Z,6.01
2023-12-16T06:16:08.153Z,6.07
2023-12-16T06:18:18.207Z,6.02
2023-12-16T06:20:19.700Z,6.16
2023-12-16T06:22:21.182Z,5.98
2023-12-16T06:24:22.722Z,6.15
2023-12-16T06:26:24.150Z,6.08
2023-12-16T06:28:25.675Z,6.17
2023-12-16T06:30:27.420Z,6.05
2023-12-16T06:32:28.920Z,5.97
2023-12-16T06:34:30.384Z,6.05
2023-12-16T06:36:31.944Z,6.09
2023-12-16T06:38:33.411Z,6.16
2023-12-16T06:40:34.932Z,6.32
2023-12-16T06:42:36.495Z,6.22
2023-12-16T06:44:37.960Z,6.13
2023-12-16T06:46:39.452Z,6.15
2023-12-16T06:48:41.081Z,6.08
2023-12-16T06:50:42.602Z,6.24
2023-12-16T06:52:44.057Z,6.41
2023-12-16T06:54:45.631Z,6.20
2023-12-16T06:56:47.077Z,6.07
2023-12-16T06:58:48.653Z,6.18
2023-12-16T07:00:50.412Z,6.31
2023-12-16T07:02:51.893Z,6.17
2023-12-16T07:04:53.341Z,5.90
2023-12-16T07:06:55.031Z,6.00
2023-12-16T07:08:56.482Z,5.93
2023-12-16T07:10:58.061Z,5.97
2023-12-16T07:12:59.641Z,6.19
2023-12-16T07:15:01.138Z,6.04
2023-12-16T07:17:02.863Z,5.95
2023-12-16T07:19:04.529Z,5.98
2023-12-16T07:21:06.822Z,5.88
2023-12-16T07:23:08.348Z,6.06
2023-12-16T07:25:09.897Z,6.25
2023-12-16T07:27:11.327Z,6.39
2023-12-16T07:29:12.836Z,6.11
2023-12-16T07:31:14.388Z,6.23
2023-12-16T07:33:15.927Z,6.01
2023-12-16T07:35:17.525Z,5.80
2023-12-16T07:37:19.298Z,5.64
2023-12-16T07:39:20.781Z,5.75
2023-12-16T07:41:22.720Z,5.93
2023-12-16T07:43:24.325Z,5.60
2023-12-16T07:45:25.940Z,5.69
2023-12-16T07:47:27.485Z,5.87
2023-12-16T07:49:29.142Z,5.88
2023-12-16T07:51:30.625Z,6.09
2023-12-16T07:53:32.051Z,6.03
2023-12-16T07:55:33.564Z,6.09
2023-12-16T07:57:34.996Z,5.96
2023-12-16T07:59:36.432Z,6.05
2023-12-16T08:01:37.980Z,6.01
2023-12-16T08:03:39.497Z,6.00
2023-12-16T08:05:40.953Z,6.03
2023-12-16T08:07:42.923Z,6.14
2023-12-16T08:09:44.728Z,6.32
2023-12-16T08:11:46.161Z,6.31
2023-12-16T08:13:47.661Z,6.41
2023-12-16T08:15:49.131Z,6.40
2023-12-16T08:17:50.685Z,6.47
2023-12-16T08:19:52.348Z,6.76
2023-12-16T08:21:54.175Z,7.00
2023-12-16T08:23:55.626Z,6.86
2023-12-16T08:25:57.269Z,6.78
2023-12-16T08:27:58.727Z,6.84
2023-12-16T08:30:00.300Z,6.69
2023-12-16T08:32:02.107Z,6.87
2023-12-16T08:34:03.637Z,6.81
2023-12-16T08:36:06.120Z,6.87
2023-12-16T08:38:07.626Z,6.84
2023-12-16T08:40:09.575Z,6.96
2023-12-16T08:42:11.042Z,6.78
2023-12-16T08:44:12.694Z,6.93
2023-12-16T08:46:14.228Z,6.91
2023-12-16T08:48:15.696Z,6.95
2023-12-16T08:50:17.402Z,6.98
2023-12-16T08:52:19.261Z,7.08
2023-12-16T08:54:20.759Z,7.08
2023-12-16T08:56:22.258Z,6.78
2023-12-16T08:58:23.890Z,6.89
2023-12-16T09:00:25.373Z,6.86
2023-12-16T09:02:26.972Z,6.78
2023-12-16T09:04:28.485Z,6.86
2023-12-16T09:06:29.975Z,6.81
2023-12-16T09:08:31.508Z,6.97
2023-12-16T09:10:33.049Z,6.84
2023-12-16T09:12:34.545Z,6.82
2023-12-16T09:14:36.078Z,6.91
2023-12-16T09:16:37.611Z,7.15
2023-12-16T09:18:39.209Z,7.01
2023-12-16T09:20:40.721Z,6.95
2023-12-16T09:22:42.242Z,7.07
2023-12-16T09:24:43.914Z,7.06
2023-12-16T09:26:45.453Z,7.13
2023-12-16T09:28:47.010Z,7.36
2023-12-16T09:30:48.552Z,7.19
2023-12-16T09:32:50.245Z,7.04
2023-12-16T09:34:51.763Z,7.05
2023-12-16T09:36:53.283Z,7.15
2023-12-16T09:38:55.465Z,7.32
2023-12-16T09:40:57.220Z,7.33
2023-12-16T09:43:14.108Z,7.09
2023-12-16T09:45:15.689Z,7.20
2023-12-16T09:47:17.288Z,7.18
2023-12-16T09:49:18.815Z,7.13
2023-12-16T09:51:21.417Z,7.33
2023-12-16T09:53:22.883Z,7.43
2023-12-16T09:55:24.392Z,7.32
2023-12-16T09:57:26.358Z,7.53
2023-12-16T09:59:30.439Z,7.52
2023-12-16T10:01:32.064Z,7.42
2023-12-16T10:03:34.079Z,7.63
2023-12-16T10:05:36.840Z,7.43
2023-12-16T10:07:38.574Z,7.55
2023-12-16T10:09:40.230Z,7.62
2023-12-16T10:11:42.211Z,7.81
2023-12-16T10:14:02.539Z,7.83
2023-12-16T10:16:16.887Z,7.73
2023-12-16T10:18:18.448Z,7.70
2023-12-16T10:20:19.949Z,7.79
2023-12-16T10:22:22.039Z,7.49
2023-12-16T10:24:23.517Z,7.63
2023-12-16T10:26:25.450Z,7.67
2023-12-16T10:28:27.965Z,7.61
2023-12-16T10:30:30.347Z,7.78
2023-12-16T10:32:31.997Z,7.80
2023-12-16T10:34:33.830Z,7.95
2023-12-16T10:36:35.332Z,7.78
2023-12-16T10:38:36.781Z,7.56
2023-12-16T10:40:38.485Z,7.88
2023-12-16T10:42:40.079Z,7.97
2023-12-16T10:44:41.510Z,8.06
2023-12-16T10:46:44.211Z,7.91
2023-12-16T10:48:48.810Z,7.60
2023-12-16T10:50:50.696Z,7.59
2023-12-16T10:52:57.363Z,7.83
2023-12-16T10:55:04.113Z,7.89
2023-12-16T10:57:27.503Z,7.91
2023-12-16T10:59:33.517Z,7.92
2023-12-16T11:01:42.624Z,7.92
2023-12-16T11:03:50.654Z,7.42
2023-12-16T11:05:57.499Z,7.75
2023-12-16T11:08:00.371Z,7.88
2023-12-16T11:10:02.716Z,7.88
2023-12-16T11:12:05.507Z,7.85
2023-12-16T11:14:07.638Z,7.83
2023-12-16T11:16:17.299Z,7.96
2023-12-16T11:18:22.215Z,7.76
2023-12-16T11:20:32.208Z,7.74
2023-12-16T11:22:33.738Z,7.90
2023-12-16T11:24:41.812Z,7.94
2023-12-16T11:26:43.379Z,7.90
2023-12-16T11:28:44.810Z,7.86
2023-12-16T11:30:46.561Z,7.83
2023-12-16T11:32:56.196Z,7.75
2023-12-16T11:34:57.745Z,7.67
2023-12-16T11:36:59.315Z,7.73
2023-12-16T11:39:00.776Z,7.80
2023-12-16T11:41:02.542Z,7.63
2023-12-16T11:43:04.199Z,7.70
2023-12-16T11:45:06.309Z,7.79
2023-12-16T11:47:07.834Z,7.87
2023-12-16T11:49:12.139Z,7.76
2023-12-16T11:51:13.886Z,7.82
2023-12-16T11:53:16.747Z,7.93
2023-12-16T11:55:20.104Z,8.03
2023-12-16T11:57:28.572Z,8.17
2023-12-16T11:59:30.007Z,8.20
2023-12-16T12:01:33.302Z,8.08
2023-12-16T12:03:34.875Z,7.90
2023-12-16T12:05:36.659Z,8.00
2023-12-16T12:07:40.233Z,8.09
2023-12-16T12:09:45.721Z,8.11
2023-12-16T12:11:47.211Z,8.26
2023-12-16T12:13:49.171Z,8.28
2023-12-16T12:15:50.653Z,8.08
2023-12-16T12:17:52.309Z,7.90
2023-12-16T12:19:54.031Z,7.84
2023-12-16T12:21:55.752Z,7.80
2023-12-16T12:23:57.187Z,8.03
2023-12-16T12:25:58.800Z,8.00
2023-12-16T12:28:00.368Z,7.95
2023-12-16T12:30:06.037Z,7.98
2023-12-16T12:32:07.790Z,7.91
2023-12-16T12:34:09.473Z,7.88
2023-12-16T12:36:11.184Z,7.95
2023-12-16T12:38:12.800Z,8.07
2023-12-16T12:40:14.489Z,8.08
2023-12-16T12:42:16.321Z,8.11
2023-12-16T12:44:17.989Z,8.17
2023-12-16T12:46:19.458Z,8.09
2023-12-16T12:48:21.221Z,8.09
2023-12-16T12:50:24.721Z,8.22
2023-12-16T12:53:17.331Z,8.14
2023-12-16T12:55:00.778Z,8.01
2023-12-16T12:57:02.283Z,7.99
2023-12-16T12:59:56.911Z,8.02
2023-12-16T13:01:25.388Z,7.80
2023-12-16T13:03:28.183Z,7.69
2023-12-16T13:05:29.721Z,7.79
2023-12-16T13:07:31.358Z,7.85
2023-12-16T13:09:32.816Z,7.74
2023-12-16T13:11:34.303Z,7.82
2023-12-16T13:13:36.384Z,7.92
2023-12-16T13:15:53.523Z,7.93
2023-12-16T13:18:00.164Z,7.70
2023-12-16T13:20:01.905Z,7.77
2023-12-16T13:22:04.709Z,7.80
2023-12-16T13:24:06.436Z,7.78
2023-12-16T13:26:11.820Z,7.70
2023-12-16T13:28:13.301Z,7.86
2023-12-16T13:30:14.994Z,7.72
2023-12-16T13:32:16.662Z,7.73
2023-12-16T13:34:18.225Z,7.64
2023-12-16T13:36:33.833Z,7.54
2023-12-16T13:38:41.266Z,7.40
2023-12-16T13:40:49.164Z,7.50
2023-12-16T13:42:53.394Z,7.66
2023-12-16T13:44:54.835Z,7.68
2023-12-16T13:46:56.288Z,7.31
2023-12-16T13:48:57.899Z,7.57
2023-12-16T13:50:59.498Z,7.49
2023-12-16T13:53:00.949Z,7.39
2023-12-16T13:55:04.426Z,7.50
2023-12-16T13:57:07.914Z,7.64
2023-12-16T13:59:09.368Z,7.46
2023-12-16T14:01:10.857Z,7.52
2023-12-16T14:03:12.397Z,7.59
2023-12-16T14:05:14.120Z,7.68
2023-12-16T14:07:16.252Z,7.66
2023-12-16T14:09:18.074Z,7.29
2023-12-16T14:11:19.505Z,7.42
2023-12-16T14:13:20.962Z,7.32
2023-12-16T14:15:22.628Z,7.35
2023-12-16T14:17:24.124Z,7.33
2023-12-16T14:19:25.612Z,7.36
2023-12-16T14:21:27.167Z,7.24
2023-12-16T14:23:28.636Z,7.52
2023-12-16T14:25:30.054Z,7.30
2023-12-16T14:27:31.471Z,7.32
2023-12-16T14:29:32.990Z,7.53
2023-12-16T14:31:34.439Z,7.45
2023-12-16T14:33:36.153Z,7.55
2023-12-16T14:35:38.836Z,7.41
2023-12-16T14:37:40.809Z,7.55
2023-12-16T14:39:42.583Z,7.60
2023-12-16T14:41:44.111Z,7.58
2023-12-16T14:43:45.544Z,7.47
2023-12-16T14:45:47.133Z,7.43
2023-12-16T14:47:48.918Z,7.80
2023-12-16T14:49:50.431Z,7.52
2023-12-16T14:51:52.031Z,7.71
2023-12-16T14:53:53.471Z,7.83
2023-12-16T14:55:54.911Z,7.85
2023-12-16T14:57:56.452Z,7.50
2023-12-16T14:59:58.034Z,7.76
2023-12-16T15:01:59.491Z,7.66
2023-12-16T15:04:00.999Z,7.51
2023-12-16T15:06:12.849Z,7.45
2023-12-16T15:08:23.340Z,7.37
2023-12-16T15:10:24.941Z,7.50
2023-12-16T15:12:26.777Z,7.53
2023-12-16T15:14:28.221Z,7.39
2023-12-16T15:16:29.856Z,7.28
2023-12-16T15:18:31.408Z,7.28
2023-12-16T15:20:32.972Z,7.25
2023-12-16T15:22:34.511Z,7.45
2023-12-16T15:24:35.979Z,7.48
2023-12-16T15:26:38.382Z,7.54
2023-12-16T15:28:40.169Z,7.35
2023-12-16T15:30:41.652Z,7.59
2023-12-16T15:32:43.581Z,7.38
2023-12-16T15:34:45.463Z,7.44
2023-12-16T15:36:46.934Z,7.48
2023-12-16T15:38:48.545Z,7.40
2023-12-16T15:40:50.081Z,7.56
2023-12-16T15:42:51.508Z,7.60
2023-12-16T15:44:53.008Z,7.64
2023-12-16T15:46:54.508Z,7.54
2023-12-16T15:48:56.154Z,7.58
2023-12-16T15:50:57.718Z,7.75
2023-12-16T15:52:59.183Z,7.42
2023-12-16T15:55:00.618Z,7.31
2023-12-16T15:57:02.147Z,7.69
2023-12-16T15:59:03.739Z,7.63
2023-12-16T16:01:05.515Z,7.68
2023-12-16T16:03:07.115Z,7.57
2023-12-16T16:05:08.992Z,7.49
2023-12-16T16:07:10.626Z,7.59
2023-12-16T16:09:12.113Z,7.61
2023-12-16T16:11:13.619Z,7.49
2023-12-16T16:13:15.133Z,7.64
2023-12-16T16:15:18.642Z,7.69
2023-12-16T16:17:20.926Z,7.55
2023-12-16T16:19:22.815Z,7.63
2023-12-16T16:21:24.416Z,7.66
2023-12-16T16:23:25.833Z,7.55
2023-12-16T16:25:27.459Z,7.69
2023-12-16T16:27:28.940Z,7.75
2023-12-16T16:29:30.385Z,7.56
2023-12-16T16:31:32.069Z,7.63
2023-12-16T16:33:33.626Z,7.53
2023-12-16T16:35:35.133Z,7.55
2023-12-16T16:37:36.788Z,7.71
2023-12-16T16:39:38.219Z,7.76
2023-12-16T16:41:39.680Z,7.75
2023-12-16T16:43:41.232Z,7.64
2023-12-16T16:45:42.660Z,7.50
2023-12-16T16:47:44.387Z,7.58
2023-12-16T16:49:46.781Z,7.57
2023-12-16T16:51:50.065Z,7.70
2023-12-16T16:53:51.576Z,7.58
2023-12-16T16:55:53.193Z,7.61
2023-12-16T16:57:55.130Z,7.62
2023-12-16T16:59:56.624Z,7.70
2023-12-16T17:01:58.139Z,7.56
2023-12-16T17:03:59.676Z,7.61
2023-12-16T17:06:01.362Z,7.55
2023-12-16T17:08:03.531Z,7.52
2023-12-16T17:10:05.345Z,7.53
2023-12-16T17:12:06.920Z,7.74
2023-12-16T17:14:08.611Z,7.58
2023-12-16T17:16:10.206Z,7.79
2023-12-16T17:18:11.792Z,7.60
2023-12-16T17:20:13.407Z,7.60
2023-12-16T17:22:15.625Z,7.60
2023-12-16T17:24:17.355Z,7.36
2023-12-16T17:26:18.894Z,7.58
2023-12-16T17:28:21.242Z,7.49
2023-12-16T17:30:23.446Z,7.35
2023-12-16T17:32:25.092Z,7.41
2023-12-16T17:34:26.603Z,7.46
2023-12-16T17:36:28.239Z,7.55
2023-12-16T17:38:29.886Z,7.55
2023-12-16T17:40:31.324Z,7.55
2023-12-16T17:42:32.758Z,7.59
2023-12-16T17:44:36.871Z,7.55
2023-12-16T17:46:38.701Z,7.62
2023-12-16T17:48:40.228Z,7.55
2023-12-16T17:50:42.100Z,7.36
2023-12-16T17:52:43.532Z,7.52
2023-12-16T17:54:44.965Z,7.63
2023-12-16T17:56:46.562Z,7.68
2023-12-16T17:58:47.997Z,7.58
2023-12-16T18:00:49.545Z,7.71
2023-12-16T18:02:51.196Z,7.61
2023-12-16T18:04:52.702Z,7.57
2023-12-16T18:06:54.147Z,7.51
2023-12-16T18:08:55.705Z,7.67
2023-12-16T18:10:57.151Z,7.61
2023-12-16T18:12:58.607Z,7.69
2023-12-16T18:15:00.131Z,7.55
2023-12-16T18:17:01.639Z,7.56
2023-12-16T18:19:03.481Z,7.44
2023-12-16T18:21:05.518Z,7.60
2023-12-16T18:23:07.125Z,7.50
2023-12-16T18:25:08.961Z,7.42
2023-12-16T18:27:10.598Z,7.32
2023-12-16T18:29:12.273Z,7.39
2023-12-16T18:31:15.700Z,7.45
2023-12-16T18:33:18.859Z,7.48
2023-12-16T18:35:20.366Z,7.37
2023-12-16T18:37:21.805Z,7.30
2023-12-16T18:39:23.323Z,7.41
2023-12-16T18:41:24.774Z,7.49
2023-12-16T18:43:26.216Z,7.36
2023-12-16T18:45:27.813Z,7.40
2023-12-16T18:47:29.395Z,7.57
2023-12-16T18:49:31.016Z,7.53
2023-12-16T18:51:32.599Z,7.37
2023-12-16T18:53:34.100Z,7.37
2023-12-16T18:55:35.538Z,7.30
2023-12-16T18:57:37.371Z,7.11
2023-12-16T18:59:38.950Z,7.41
2023-12-16T19:01:40.423Z,7.41
2023-12-16T19:03:42.413Z,7.20
2023-12-16T19:05:44.019Z,7.16
2023-12-16T19:07:45.469Z,7.14
2023-12-16T19:09:47.099Z,7.10
2023-12-16T19:11:48.591Z,7.10
2023-12-16T19:13:50.193Z,6.94
2023-12-16T19:15:55.709Z,6.94
2023-12-16T19:17:57.344Z,7.19
2023-12-16T19:19:59.548Z,7.26
2023-12-16T19:22:01.269Z,7.12
2023-12-16T19:24:02.728Z,7.26
2023-12-16T19:26:04.340Z,7.37
2023-12-16T19:28:06.336Z,7.53
2023-12-16T19:30:08.339Z,7.20
2023-12-16T19:32:09.855Z,7.16
2023-12-16T19:34:11.474Z,7.05
2023-12-16T19:36:13.050Z,7.31
2023-12-16T19:38:14.521Z,7.31
2023-12-16T19:40:16.125Z,7.46
2023-12-16T19:42:17.598Z,7.42
2023-12-16T19:44:19.511Z,7.41
2023-12-16T19:46:21.086Z,7.32
2023-12-16T19:48:22.683Z,7.14
2023-12-16T19:50:24.157Z,7.08
2023-12-16T19:52:25.794Z,7.23
2023-12-16T19:54:27.212Z,7.32
2023-12-16T19:56:28.769Z,7.07
2023-12-16T19:58:30.277Z,6.80
2023-12-16T20:00:31.706Z,6.95
2023-12-16T20:02:33.170Z,6.79
2023-12-16T20:04:35.247Z,7.02
2023-12-16T20:06:36.741Z,6.97
2023-12-16T20:08:38.237Z,7.07
2023-12-16T20:10:39.903Z,6.85
2023-12-16T20:12:41.333Z,7.09
2023-12-16T20:14:42.796Z,6.99
2023-12-16T20:16:44.743Z,7.03
2023-12-16T20:18:46.371Z,7.05
2023-12-16T20:20:47.977Z,7.11
2023-12-16T20:22:49.541Z,6.89
2023-12-16T20:24:51.003Z,6.92
2023-12-16T20:26:52.554Z,6.92
2023-12-16T20:28:54.121Z,6.72
2023-12-16T20:30:55.645Z,6.82
2023-12-16T20:32:57.237Z,6.96
2023-12-16T20:34:58.873Z,6.88
2023-12-16T20:37:00.353Z,7.02
2023-12-16T20:39:01.863Z,7.07
2023-12-16T20:41:03.696Z,7.04
2023-12-16T20:43:05.352Z,6.89
2023-12-16T20:45:07.793Z,7.06
2023-12-16T20:47:09.401Z,7.01
2023-12-16T20:49:11.016Z,6.97
2023-12-16T20:51:12.716Z,7.13
2023-12-16T20:53:14.240Z,7.15
2023-12-16T20:55:15.721Z,7.07
2023-12-16T20:57:17.187Z,7.02
2023-12-16T20:59:18.932Z,7.00
2023-12-16T21:01:20.440Z,7.10
2023-12-16T21:03:21.940Z,6.88
2023-12-16T21:05:23.717Z,6.90
2023-12-16T21:07:25.144Z,6.98
2023-12-16T21:09:26.607Z,6.89
2023-12-16T21:11:28.128Z,6.97
2023-12-16T21:13:29.697Z,7.02
2023-12-16T21:15:31.148Z,6.97
2023-12-16T21:17:33.332Z,6.91
2023-12-16T21:19:34.895Z,6.93
2023-12-16T21:21:36.616Z,7.17
2023-12-16T21:23:38.052Z,7.11
2023-12-16T21:25:39.509Z,7.07
2023-12-16T21:27:41.229Z,6.99
2023-12-16T21:29:44.929Z,7.26
2023-12-16T21:31:46.452Z,7.18
2023-12-16T21:33:48.094Z,7.05
2023-12-16T21:35:50.553Z,7.12
2023-12-16T21:37:51.985Z,7.13
2023-12-16T21:39:53.652Z,7.03
2023-12-16T21:41:55.472Z,7.15
2023-12-16T21:43:58.118Z,7.15
2023-12-16T21:45:59.948Z,7.08
2023-12-16T21:48:01.518Z,7.17
2023-12-16T21:50:03.106Z,7.36
2023-12-16T21:52:04.858Z,7.29
2023-12-16T21:54:06.352Z,7.25
2023-12-16T21:56:08.263Z,7.19
2023-12-16T21:58:09.713Z,7.02
2023-12-16T22:00:11.939Z,6.97
2023-12-16T22:02:13.503Z,7.21
2023-12-16T22:04:15.269Z,7.22
2023-12-16T22:06:17.825Z,7.35
2023-12-16T22:08:19.376Z,7.37
2023-12-16T22:10:20.984Z,7.26
2023-12-16T22:12:22.603Z,7.20
2023-12-16T22:14:24.060Z,7.06
2023-12-16T22:16:25.666Z,7.19
2023-12-16T22:18:27.912Z,7.24
2023-12-16T22:20:29.459Z,7.06
2023-12-16T22:22:30.992Z,7.30
2023-12-16T22:24:32.429Z,7.21
2023-12-16T22:26:33.868Z,7.18
2023-12-16T22:28:35.662Z,7.25
2023-12-16T22:30:37.168Z,7.19
2023-12-16T22:32:38.692Z,7.26
2023-12-16T22:34:40.322Z,7.20
2023-12-16T22:36:41.835Z,7.22
2023-12-16T22:38:43.295Z,7.31
2023-12-16T22:40:44.939Z,7.23
2023-12-16T22:42:46.534Z,7.36
2023-12-16T22:44:48.109Z,7.42
2023-12-16T22:46:49.673Z,7.46
2023-12-16T22:48:51.345Z,7.55
2023-12-16T22:50:53.114Z,7.47
2023-12-16T22:52:54.856Z,7.39
2023-12-16T22:54:56.290Z,7.26
2023-12-16T22:56:57.773Z,7.55
2023-12-16T22:58:59.411Z,7.47
2023-12-16T23:01:00.864Z,7.42
2023-12-16T23:03:03.023Z,7.54
2023-12-16T23:05:04.963Z,7.43
2023-12-16T23:07:06.429Z,7.36
2023-12-16T23:09:07.891Z,7.56
2023-12-16T23:11:09.596Z,7.56
2023-12-16T23:13:11.086Z,7.32
2023-12-16T23:15:12.743Z,7.52
2023-12-16T23:17:14.383Z,7.38
2023-12-16T23:19:15.966Z,7.37
2023-12-16T23:21:17.582Z,7.49
2023-12-16T23:23:19.195Z,7.48
2023-12-16T23:25:20.651Z,7.51
2023-12-16T23:27:22.153Z,7.44
2023-12-16T23:29:23.669Z,7.43
2023-12-16T23:31:25.145Z,7.55
2023-12-16T23:33:26.793Z,7.30
2023-12-16T23:35:28.455Z,7.49
2023-12-16T23:37:29.890Z,7.49
2023-12-16T23:39:31.358Z,7.61
2023-12-16T23:41:32.903Z,7.49
2023-12-16T23:43:34.330Z,7.46
2023-12-16T23:45:35.872Z,7.52
2023-12-16T23:47:37.716Z,7.46
2023-12-16T23:49:39.608Z,7.52
2023-12-16T23:51:42.324Z,7.59
2023-12-16T23:53:43.981Z,7.57
2023-12-16T23:55:45.438Z,7.54
2023-12-16T23:57:46.918Z,7.56
2023-12-16T23:59:48.608Z,7.66
